createdAt,value
2023-05-06T00:02:22.360Z,20.91
2023-05-06T00:05:09.489Z,20.91
2023-05-06T00:07:56.511Z,20.88
2023-05-06T00:10:43.267Z,20.85
2023-05-06T00:13:30.226Z,20.83
2023-05-06T00:16:17.113Z,20.81
2023-05-06T00:19:04.402Z,20.80
2023-05-06T00:21:51.279Z,20.77
2023-05-06T00:24:38.074Z,20.75
2023-05-06T00:27:24.863Z,20.72
2023-05-06T00:30:11.892Z,20.69
2023-05-06T00:32:58.665Z,20.66
2023-05-06T00:35:45.446Z,20.65
2023-05-06T00:38:32.214Z,20.64
2023-05-06T00:41:18.992Z,20.62
2023-05-06T00:44:05.938Z,20.61
2023-05-06T00:46:52.876Z,20.57
2023-05-06T00:49:39.676Z,20.56
2023-05-06T00:52:26.458Z,20.53
2023-05-06T00:55:13.218Z,20.51
2023-05-06T00:58:00.029Z,20.48
2023-05-06T01:00:46.989Z,20.46
2023-05-06T01:03:33.936Z,20.44
2023-05-06T01:06:24.434Z,20.41
2023-05-06T01:09:20.529Z,20.39
2023-05-06T01:12:08.411Z,20.37
2023-05-06T01:15:00.286Z,20.36
2023-05-06T01:17:47.326Z,20.32
2023-05-06T01:20:34.100Z,20.29
2023-05-06T01:23:20.899Z,20.27
2023-05-06T01:26:08.061Z,20.25
2023-05-06T01:28:54.997Z,20.23
2023-05-06T01:31:43.491Z,20.21
2023-05-06T01:34:40.969Z,20.17
2023-05-06T01:37:40.038Z,20.16
2023-05-06T01:40:27.759Z,20.15
2023-05-06T01:43:14.490Z,20.12
2023-05-06T01:46:01.345Z,20.10
2023-05-06T01:48:49.883Z,20.08
2023-05-06T01:51:36.661Z,20.05
2023-05-06T01:54:23.458Z,20.03
2023-05-06T01:57:10.859Z,20.00
2023-05-06T01:59:57.608Z,19.98
2023-05-06T02:02:44.547Z,19.96
2023-05-06T02:05:31.528Z,19.94
2023-05-06T02:08:18.307Z,19.90
2023-05-06T02:11:05.042Z,19.87
2023-05-06T02:13:51.788Z,19.87
2023-05-06T02:16:38.587Z,19.86
2023-05-06T02:19:25.404Z,19.84
2023-05-06T02:22:12.222Z,19.82
2023-05-06T02:24:58.984Z,19.80
2023-05-06T02:27:45.807Z,19.78
2023-05-06T02:30:32.633Z,19.76
2023-05-06T02:33:19.423Z,19.75
2023-05-06T02:36:06.200Z,19.72
2023-05-06T02:38:52.925Z,19.70
2023-05-06T02:41:39.659Z,19.65
2023-05-06T02:44:26.533Z,19.64
2023-05-06T02:47:13.337Z,19.62
2023-05-06T02:50:00.196Z,19.60
2023-05-06T02:52:46.917Z,19.57
2023-05-06T02:55:33.652Z,19.57
2023-05-06T02:58:20.468Z,19.53
2023-05-06T03:01:07.267Z,19.51
2023-05-06T03:03:54.074Z,19.47
2023-05-06T03:06:40.882Z,19.46
2023-05-06T03:09:27.641Z,19.44
2023-05-06T03:12:14.444Z,19.42
2023-05-06T03:15:01.224Z,19.40
2023-05-06T03:17:48.073Z,19.38
2023-05-06T03:20:34.862Z,19.37
2023-05-06T03:23:21.615Z,19.35
2023-05-06T03:26:10.401Z,19.34
2023-05-06T03:28:57.288Z,19.32
2023-05-06T03:31:44.072Z,19.30
2023-05-06T03:34:30.925Z,19.25
2023-05-06T03:37:18.191Z,19.23
2023-05-06T03:40:05.182Z,19.20
2023-05-06T03:42:51.934Z,19.18
2023-05-06T03:45:38.667Z,19.16
2023-05-06T03:48:25.819Z,19.15
2023-05-06T03:51:12.617Z,19.13
2023-05-06T03:53:59.504Z,19.11
2023-05-06T03:56:46.289Z,19.07
2023-05-06T03:59:33.010Z,19.06
2023-05-06T04:02:19.870Z,19.05
2023-05-06T04:05:07.696Z,19.02
2023-05-06T04:07:54.688Z,18.99
2023-05-06T04:10:41.774Z,18.97
2023-05-06T04:13:28.798Z,18.94
2023-05-06T04:16:15.696Z,18.94
2023-05-06T04:19:05.692Z,18.90
2023-05-06T04:21:53.170Z,18.88
2023-05-06T04:24:41.788Z,18.88
2023-05-06T04:27:29.849Z,18.86
2023-05-06T04:30:16.669Z,18.85
2023-05-06T04:33:04.130Z,18.82
2023-05-06T04:35:54.270Z,18.79
2023-05-06T04:38:41.835Z,18.78
2023-05-06T04:41:31.185Z,18.74
2023-05-06T04:44:19.507Z,18.75
2023-05-06T04:47:06.728Z,18.73
2023-05-06T04:49:53.763Z,18.71
2023-05-06T04:52:40.833Z,18.70
2023-05-06T04:55:27.663Z,18.68
2023-05-06T04:58:14.637Z,18.66
2023-05-06T05:01:03.625Z,18.65
2023-05-06T05:03:50.604Z,18.63
2023-05-06T05:06:37.424Z,18.62
2023-05-06T05:09:24.216Z,18.58
2023-05-06T05:12:11.155Z,18.56
2023-05-06T05:14:57.934Z,18.55
2023-05-06T05:17:44.732Z,18.53
2023-05-06T05:20:31.560Z,18.51
2023-05-06T05:23:18.315Z,18.50
2023-05-06T05:26:05.098Z,18.48
2023-05-06T05:28:51.971Z,18.47
2023-05-06T05:31:38.785Z,18.46
2023-05-06T05:34:25.680Z,18.44
2023-05-06T05:37:12.435Z,18.44
2023-05-06T05:39:59.249Z,18.44
2023-05-06T05:42:46.057Z,18.43
2023-05-06T05:45:32.831Z,18.40
2023-05-06T05:48:19.557Z,18.40
2023-05-06T05:51:06.299Z,18.40
2023-05-06T05:53:53.375Z,18.39
2023-05-06T05:56:40.138Z,18.39
2023-05-06T05:59:28.298Z,18.38
2023-05-06T06:02:15.160Z,18.37
2023-05-06T06:05:01.944Z,18.38
2023-05-06T06:07:48.820Z,18.38
2023-05-06T06:10:35.772Z,18.37
2023-05-06T06:13:23.263Z,18.36
2023-05-06T06:16:10.519Z,18.35
2023-05-06T06:18:57.323Z,18.37
2023-05-06T06:21:44.075Z,18.35
2023-05-06T06:24:34.680Z,18.37
2023-05-06T06:27:21.528Z,18.36
2023-05-06T06:30:08.543Z,18.37
2023-05-06T06:32:56.566Z,18.36
2023-05-06T06:35:43.499Z,18.36
2023-05-06T06:38:30.284Z,18.36
2023-05-06T06:41:17.036Z,18.36
2023-05-06T06:44:03.827Z,18.35
2023-05-06T06:46:50.721Z,18.35
2023-05-06T06:49:38.548Z,18.35
2023-05-06T06:52:25.417Z,18.33
2023-05-06T06:55:12.399Z,18.33
2023-05-06T06:57:59.433Z,18.33
2023-05-06T07:00:46.284Z,18.32
2023-05-06T07:03:33.161Z,18.33
2023-05-06T07:06:20.130Z,18.32
2023-05-06T07:09:06.857Z,18.32
2023-05-06T07:11:53.680Z,18.34
2023-05-06T07:14:41.409Z,18.33
2023-05-06T07:17:28.351Z,18.32
2023-05-06T07:20:16.233Z,18.33
2023-05-06T07:23:03.575Z,18.34
2023-05-06T07:25:50.400Z,18.33
2023-05-06T07:28:37.131Z,18.32
2023-05-06T07:31:23.942Z,18.32
2023-05-06T07:34:11.148Z,18.33
2023-05-06T07:36:57.928Z,18.34
2023-05-06T07:39:44.750Z,18.33
2023-05-06T07:42:31.482Z,18.34
2023-05-06T07:45:19.656Z,18.35
2023-05-06T07:48:06.580Z,18.36
2023-05-06T07:50:53.356Z,18.38
2023-05-06T07:53:40.289Z,18.39
2023-05-06T07:56:27.057Z,18.41
2023-05-06T07:59:14.291Z,18.44
2023-05-06T08:02:01.528Z,18.46
2023-05-06T08:04:50.138Z,18.48
2023-05-06T08:07:39.229Z,18.51
2023-05-06T08:10:26.017Z,18.52
2023-05-06T08:13:12.822Z,18.56
2023-05-06T08:16:00.675Z,18.60
2023-05-06T08:18:47.461Z,18.63
2023-05-06T08:21:34.200Z,18.68
2023-05-06T08:24:21.084Z,18.74
2023-05-06T08:27:07.830Z,18.81
2023-05-06T08:29:54.554Z,18.86
2023-05-06T08:32:41.378Z,18.94
2023-05-06T08:35:28.100Z,19.05
2023-05-06T08:38:14.844Z,19.10
2023-05-06T08:41:03.462Z,19.17
2023-05-06T08:43:50.759Z,19.21
2023-05-06T08:46:37.514Z,19.24
2023-05-06T08:49:24.295Z,19.29
2023-05-06T08:52:11.055Z,19.34
2023-05-06T08:55:01.559Z,19.38
2023-05-06T08:57:48.590Z,19.42
2023-05-06T09:00:35.581Z,19.45
2023-05-06T09:03:22.386Z,19.50
2023-05-06T09:06:09.223Z,19.56
2023-05-06T09:08:56.051Z,19.60
2023-05-06T09:11:42.826Z,19.66
2023-05-06T09:14:29.767Z,19.70
2023-05-06T09:17:29.144Z,19.75
2023-05-06T09:20:15.963Z,19.76
2023-05-06T09:23:02.806Z,19.79
2023-05-06T09:25:51.242Z,19.82
2023-05-06T09:28:38.010Z,19.85
2023-05-06T09:31:26.194Z,19.87
2023-05-06T09:34:13.170Z,19.94
2023-05-06T09:36:59.955Z,20.01
2023-05-06T09:39:46.941Z,20.26
2023-05-06T09:42:33.695Z,20.66
2023-05-06T09:45:20.919Z,21.00
2023-05-06T09:48:08.353Z,21.25
2023-05-06T09:50:55.117Z,21.47
2023-05-06T09:53:41.857Z,21.63
2023-05-06T09:56:28.514Z,21.74
2023-05-06T09:59:20.519Z,21.83
2023-05-06T10:02:07.298Z,21.80
2023-05-06T10:04:54.711Z,21.93
2023-05-06T10:07:44.372Z,21.94
2023-05-06T10:10:31.260Z,21.94
2023-05-06T10:13:20.347Z,21.94
2023-05-06T10:16:10.151Z,21.92
2023-05-06T10:18:56.833Z,21.91
2023-05-06T10:21:43.829Z,21.87
2023-05-06T10:24:36.341Z,21.87
2023-05-06T10:27:23.711Z,21.92
2023-05-06T10:30:13.879Z,21.88
2023-05-06T10:33:03.743Z,22.01
2023-05-06T10:36:15.617Z,22.04
2023-05-06T10:39:03.814Z,22.08
2023-05-06T10:41:50.622Z,22.15
2023-05-06T10:45:04.004Z,22.24
2023-05-06T10:47:56.839Z,22.33
2023-05-06T10:50:45.646Z,22.40
2023-05-06T10:53:52.079Z,22.46
2023-05-06T10:56:39.385Z,22.54
2023-05-06T10:59:26.585Z,22.61
2023-05-06T11:02:13.427Z,22.68
2023-05-06T11:05:00.709Z,22.73
2023-05-06T11:07:49.726Z,22.79
2023-05-06T11:10:36.864Z,22.85
2023-05-06T11:13:27.816Z,22.91
2023-05-06T11:16:19.097Z,22.95
2023-05-06T11:19:06.030Z,22.99
2023-05-06T11:21:53.360Z,23.01
2023-05-06T11:24:40.963Z,23.05
2023-05-06T11:27:27.633Z,23.08
2023-05-06T11:30:24.345Z,23.10
2023-05-06T11:33:33.690Z,23.11
2023-05-06T11:36:20.739Z,23.04
2023-05-06T11:39:10.513Z,23.14
2023-05-06T11:42:06.504Z,23.15
2023-05-06T11:44:53.942Z,23.16
2023-05-06T11:47:43.130Z,23.16
2023-05-06T11:50:29.856Z,23.20
2023-05-06T11:53:18.815Z,23.20
2023-05-06T11:56:06.151Z,23.22
2023-05-06T11:58:56.514Z,23.22
2023-05-06T12:01:43.688Z,23.22
2023-05-06T12:04:40.433Z,23.23
2023-05-06T12:07:27.202Z,23.24
2023-05-06T12:10:14.179Z,23.26
2023-05-06T12:13:04.198Z,23.28
2023-05-06T12:15:54.178Z,23.29
2023-05-06T12:18:40.885Z,23.30
2023-05-06T12:21:32.867Z,23.34
2023-05-06T12:24:41.886Z,23.35
2023-05-06T12:27:32.827Z,23.36
2023-05-06T12:30:28.828Z,23.39
2023-05-06T12:33:18.480Z,23.41
2023-05-06T12:36:08.367Z,23.44
2023-05-06T12:38:56.012Z,23.45
2023-05-06T12:41:46.218Z,23.47
2023-05-06T12:44:35.156Z,23.49
2023-05-06T12:47:22.934Z,23.51
2023-05-06T12:50:09.976Z,23.55
2023-05-06T12:52:56.932Z,23.58
2023-05-06T12:55:45.203Z,23.60
2023-05-06T12:58:37.359Z,23.63
2023-05-06T13:01:24.183Z,23.66
2023-05-06T13:04:10.915Z,23.69
2023-05-06T13:07:00.181Z,23.72
2023-05-06T13:09:46.925Z,23.74
2023-05-06T13:12:33.688Z,23.78
2023-05-06T13:15:20.572Z,23.78
2023-05-06T13:18:07.422Z,23.80
2023-05-06T13:20:54.118Z,23.79
2023-05-06T13:23:46.779Z,23.80
2023-05-06T13:26:33.983Z,23.83
2023-05-06T13:29:20.821Z,23.81
2023-05-06T13:32:08.986Z,23.85
2023-05-06T13:35:03.181Z,23.91
2023-05-06T13:37:56.092Z,23.99
2023-05-06T13:41:37.248Z,24.05
2023-05-06T13:44:24.748Z,23.98
2023-05-06T13:47:11.486Z,23.88
2023-05-06T13:49:58.218Z,23.86
2023-05-06T13:52:45.296Z,23.85
2023-05-06T13:55:32.032Z,23.81
2023-05-06T13:58:18.910Z,23.88
2023-05-06T14:01:06.110Z,23.96
2023-05-06T14:03:53.204Z,24.06
2023-05-06T14:06:40.614Z,24.13
2023-05-06T14:09:27.299Z,24.20
2023-05-06T14:12:14.029Z,24.24
2023-05-06T14:15:00.856Z,24.28
2023-05-06T14:17:47.713Z,24.30
2023-05-06T14:20:34.573Z,24.33
2023-05-06T14:23:24.240Z,24.37
2023-05-06T14:26:10.969Z,24.37
2023-05-06T14:28:58.851Z,24.38
2023-05-06T14:31:45.680Z,24.39
2023-05-06T14:34:37.163Z,24.38
2023-05-06T14:37:23.895Z,24.38
2023-05-06T14:40:10.675Z,24.38
2023-05-06T14:42:57.427Z,24.33
2023-05-06T14:45:44.221Z,24.39
2023-05-06T14:48:31.979Z,24.40
2023-05-06T14:51:19.048Z,24.40
2023-05-06T14:54:05.779Z,24.39
2023-05-06T14:56:54.406Z,24.37
2023-05-06T14:59:41.305Z,24.35
2023-05-06T15:02:28.083Z,24.33
2023-05-06T15:05:15.122Z,24.30
2023-05-06T15:08:03.446Z,24.28
2023-05-06T15:10:50.475Z,24.24
2023-05-06T15:13:38.172Z,24.24
2023-05-06T15:16:24.907Z,24.24
2023-05-06T15:19:11.874Z,24.22
2023-05-06T15:21:58.718Z,24.20
2023-05-06T15:24:45.571Z,24.19
2023-05-06T15:27:32.269Z,24.19
2023-05-06T15:30:19.037Z,24.22
2023-05-06T15:33:05.997Z,24.24
2023-05-06T15:35:52.741Z,24.26
2023-05-06T15:38:51.654Z,24.27
2023-05-06T15:41:40.033Z,24.26
2023-05-06T15:44:27.202Z,24.26
2023-05-06T15:47:14.028Z,24.19
2023-05-06T15:50:02.142Z,24.17
2023-05-06T15:52:50.266Z,24.15
2023-05-06T15:55:45.137Z,24.15
2023-05-06T15:58:33.726Z,24.18
2023-05-06T16:01:23.798Z,24.20
2023-05-06T16:04:22.529Z,24.21
2023-05-06T16:07:09.367Z,24.23
2023-05-06T16:09:56.126Z,24.23
2023-05-06T16:12:43.279Z,24.23
2023-05-06T16:15:30.212Z,24.22
2023-05-06T16:18:17.742Z,24.19
2023-05-06T16:21:04.548Z,24.08
2023-05-06T16:23:51.449Z,23.91
2023-05-06T16:26:38.244Z,23.80
2023-05-06T16:29:24.996Z,23.72
2023-05-06T16:32:11.803Z,23.69
2023-05-06T16:35:00.737Z,23.64
2023-05-06T16:37:47.498Z,23.60
2023-05-06T16:40:40.338Z,23.57
2023-05-06T16:43:27.133Z,23.55
2023-05-06T16:46:13.879Z,23.62
2023-05-06T16:49:03.483Z,23.73
2023-05-06T16:51:50.212Z,23.82
2023-05-06T16:54:36.931Z,23.90
2023-05-06T16:57:23.672Z,23.94
2023-05-06T17:00:11.874Z,23.98
2023-05-06T17:02:59.261Z,23.98
2023-05-06T17:05:46.805Z,23.98
2023-05-06T17:08:36.339Z,24.00
2023-05-06T17:11:25.262Z,24.00
2023-05-06T17:14:12.211Z,23.99
2023-05-06T17:17:02.163Z,23.97
2023-05-06T17:19:48.914Z,23.97
2023-05-06T17:22:35.849Z,23.96
2023-05-06T17:25:23.747Z,23.95
2023-05-06T17:28:11.085Z,23.88
2023-05-06T17:31:01.783Z,23.92
2023-05-06T17:33:49.169Z,23.91
2023-05-06T17:36:35.900Z,23.90
2023-05-06T17:39:22.624Z,23.89
2023-05-06T17:42:09.556Z,23.88
2023-05-06T17:44:56.238Z,23.86
2023-05-06T17:47:43.096Z,23.76
2023-05-06T17:50:29.882Z,23.61
2023-05-06T17:53:16.604Z,23.53
2023-05-06T17:56:03.998Z,23.56
2023-05-06T17:58:50.716Z,23.63
2023-05-06T18:01:37.511Z,23.70
2023-05-06T18:04:24.382Z,23.77
2023-05-06T18:07:11.311Z,23.83
2023-05-06T18:09:58.060Z,23.89
2023-05-06T18:12:48.036Z,23.92
2023-05-06T18:15:34.816Z,23.96
2023-05-06T18:18:21.621Z,23.98
2023-05-06T18:21:08.407Z,24.00
2023-05-06T18:24:02.010Z,24.03
2023-05-06T18:26:59.085Z,24.04
2023-05-06T18:29:45.841Z,24.04
2023-05-06T18:32:34.152Z,24.05
2023-05-06T18:35:20.950Z,24.05
2023-05-06T18:38:07.807Z,24.06
2023-05-06T18:40:54.573Z,24.04
2023-05-06T18:43:41.295Z,24.03
2023-05-06T18:46:28.168Z,24.02
2023-05-06T18:49:14.958Z,24.00
2023-05-06T18:52:02.539Z,23.99
2023-05-06T18:54:49.304Z,23.99
2023-05-06T18:57:36.137Z,23.98
2023-05-06T19:00:24.186Z,23.97
2023-05-06T19:03:11.151Z,23.96
2023-05-06T19:05:59.392Z,23.95
2023-05-06T19:08:46.222Z,23.94
2023-05-06T19:11:34.161Z,23.93
2023-05-06T19:14:21.508Z,23.90
2023-05-06T19:17:09.378Z,23.89
2023-05-06T19:19:56.234Z,23.87
2023-05-06T19:22:42.934Z,23.86
2023-05-06T19:25:29.620Z,23.81
2023-05-06T19:28:16.333Z,23.80
2023-05-06T19:31:07.295Z,23.77
2023-05-06T19:33:54.350Z,23.73
2023-05-06T19:36:41.165Z,23.72
2023-05-06T19:39:27.871Z,23.70
2023-05-06T19:42:15.169Z,23.67
2023-05-06T19:45:08.626Z,23.65
2023-05-06T19:47:55.602Z,23.61
2023-05-06T19:50:42.430Z,23.57
2023-05-06T19:53:29.173Z,23.54
2023-05-06T19:56:17.355Z,23.51
2023-05-06T19:59:04.118Z,23.47
2023-05-06T20:01:50.954Z,23.45
2023-05-06T20:04:37.779Z,23.39
2023-05-06T20:07:24.638Z,23.35
2023-05-06T20:10:13.676Z,23.30
2023-05-06T20:13:00.610Z,23.27
2023-05-06T20:15:47.608Z,23.23
2023-05-06T20:18:34.448Z,23.21
2023-05-06T20:21:21.260Z,23.18
2023-05-06T20:24:08.172Z,23.15
2023-05-06T20:26:55.940Z,23.13
2023-05-06T20:29:42.809Z,23.13
2023-05-06T20:32:31.086Z,23.10
2023-05-06T20:35:17.925Z,23.06
2023-05-06T20:38:04.663Z,23.02
2023-05-06T20:40:51.396Z,22.99
2023-05-06T20:43:38.183Z,22.98
2023-05-06T20:46:24.962Z,22.91
2023-05-06T20:49:11.822Z,22.90
2023-05-06T20:51:58.652Z,22.85
2023-05-06T20:54:45.475Z,22.82
2023-05-06T20:57:32.237Z,22.79
2023-05-06T21:00:19.281Z,22.77
2023-05-06T21:03:06.166Z,22.75
2023-05-06T21:05:53.069Z,22.72
2023-05-06T21:08:39.755Z,22.67
2023-05-06T21:11:28.793Z,22.64
2023-05-06T21:14:15.705Z,22.63
2023-05-06T21:17:02.465Z,22.59
2023-05-06T21:19:52.359Z,22.57
2023-05-06T21:22:39.059Z,22.56
2023-05-06T21:25:25.921Z,22.55
2023-05-06T21:28:13.653Z,22.51
2023-05-06T21:31:00.524Z,22.48
2023-05-06T21:33:47.543Z,22.44
2023-05-06T21:36:35.356Z,22.43
2023-05-06T21:39:22.118Z,22.41
2023-05-06T21:42:08.829Z,22.41
2023-05-06T21:44:57.345Z,22.38
2023-05-06T21:47:44.514Z,22.38
2023-05-06T21:50:31.297Z,22.33
2023-05-06T21:53:18.088Z,22.33
2023-05-06T21:56:04.963Z,22.28
2023-05-06T21:58:52.480Z,22.27
2023-05-06T22:01:39.285Z,22.23
2023-05-06T22:04:26.220Z,22.22
2023-05-06T22:07:12.979Z,22.17
2023-05-06T22:09:59.696Z,22.16
2023-05-06T22:12:46.829Z,22.16
2023-05-06T22:15:33.593Z,22.18
2023-05-06T22:18:20.335Z,22.16
2023-05-06T22:21:07.267Z,22.12
2023-05-06T22:23:53.950Z,22.00
2023-05-06T22:26:40.779Z,22.08
2023-05-06T22:29:27.533Z,22.07
2023-05-06T22:32:14.258Z,22.05
2023-05-06T22:35:00.996Z,22.05
2023-05-06T22:37:48.152Z,22.03
2023-05-06T22:40:34.897Z,22.01
2023-05-06T22:43:21.607Z,21.95
2023-05-06T22:46:08.440Z,21.90
2023-05-06T22:48:55.334Z,21.86
2023-05-06T22:51:42.051Z,21.85
2023-05-06T22:54:28.783Z,21.85
2023-05-06T22:57:15.550Z,21.85
2023-05-06T23:00:02.327Z,21.84
2023-05-06T23:02:49.118Z,21.80
2023-05-06T23:05:35.893Z,21.77
2023-05-06T23:08:22.632Z,21.70
2023-05-06T23:11:09.357Z,21.65
2023-05-06T23:13:56.145Z,21.60
2023-05-06T23:16:43.005Z,21.58
2023-05-06T23:19:29.796Z,21.54
2023-05-06T23:22:16.507Z,21.51
2023-05-06T23:25:03.248Z,21.51
2023-05-06T23:27:49.987Z,21.51
2023-05-06T23:30:36.813Z,21.48
2023-05-06T23:33:23.632Z,21.47
2023-05-06T23:36:10.423Z,21.48
2023-05-06T23:38:57.149Z,21.46
2023-05-06T23:41:43.904Z,21.45
2023-05-06T23:44:30.770Z,21.43
2023-05-06T23:47:17.619Z,21.38
2023-05-06T23:50:04.505Z,21.32
2023-05-06T23:52:51.316Z,21.27
2023-05-06T23:55:38.139Z,21.27
2023-05-06T23:58:24.887Z,21.24
